sensor_id;sensor_type;location;lat;lon;timestamp;P1;durP1;ratioP1;P2;durP2;ratioP2
12719;SDS011;6424;48.520;11.228;2023-07-08T00:02:18;4.10;;;3.47;;
12719;SDS011;6424;48.520;11.228;2023-07-08T00:04:59;4.50;;;3.90;;
12719;SDS011;6424;48.520;11.228;2023-07-08T00:07:40;4.40;;;3.77;;
12719;SDS011;6424;48.520;11.228;2023-07-08T00:10:23;4.07;;;3.50;;
12719;SDS011;6424;48.520;11.228;2023-07-08T00:13:05;6.70;;;6.00;;
12719;SDS011;6424;48.520;11.228;2023-07-08T00:15:47;9.37;;;7.17;;
12719;SDS011;6424;48.520;11.228;2023-07-08T00:18:28;8.57;;;6.83;;
12719;SDS011;6424;48.520;11.228;2023-07-08T00:21:10;8.37;;;6.37;;
12719;SDS011;6424;48.520;11.228;2023-07-08T00:23:49;6.93;;;6.23;;
12719;SDS011;6424;48.520;11.228;2023-07-08T00:26:31;9.47;;;6.40;;
12719;SDS011;6424;48.520;11.228;2023-07-08T00:29:12;9.97;;;7.47;;
12719;SDS011;6424;48.520;11.228;2023-07-08T00:31:40;9.10;;;6.80;;
12719;SDS011;6424;48.520;11.228;2023-07-08T00:34:21;10.47;;;7.67;;
12719;SDS011;6424;48.520;11.228;2023-07-08T00:37:02;8.37;;;6.97;;
12719;SDS011;6424;48.520;11.228;2023-07-08T00:39:45;8.77;;;7.37;;
12719;SDS011;6424;48.520;11.228;2023-07-08T00:42:25;9.67;;;6.60;;
12719;SDS011;6424;48.520;11.228;2023-07-08T00:45:29;10.60;;;6.87;;
12719;SDS011;6424;48.520;11.228;2023-07-08T00:51:03;7.43;;;5.97;;
12719;SDS011;6424;48.520;11.228;2023-07-08T00:53:44;10.83;;;6.57;;
12719;SDS011;6424;48.520;11.228;2023-07-08T00:56:35;8.60;;;6.83;;
12719;SDS011;6424;48.520;11.228;2023-07-08T00:59:22;8.60;;;7.50;;
12719;SDS011;6424;48.520;11.228;2023-07-08T01:02:04;8.70;;;6.70;;
12719;SDS011;6424;48.520;11.228;2023-07-08T01:07:22;10.80;;;7.67;;
12719;SDS011;6424;48.520;11.228;2023-07-08T01:10:07;13.63;;;7.73;;
12719;SDS011;6424;48.520;11.228;2023-07-08T01:12:53;10.70;;;7.37;;
12719;SDS011;6424;48.520;11.228;2023-07-08T01:15:23;9.17;;;7.20;;
12719;SDS011;6424;48.520;11.228;2023-07-08T01:18:12;9.23;;;7.10;;
12719;SDS011;6424;48.520;11.228;2023-07-08T01:21:00;8.63;;;6.97;;
12719;SDS011;6424;48.520;11.228;2023-07-08T01:23:44;10.80;;;7.27;;
12719;SDS011;6424;48.520;11.228;2023-07-08T01:26:25;8.97;;;7.40;;
12719;SDS011;6424;48.520;11.228;2023-07-08T01:29:07;7.97;;;7.07;;
12719;SDS011;6424;48.520;11.228;2023-07-08T01:31:47;8.83;;;6.83;;
12719;SDS011;6424;48.520;11.228;2023-07-08T01:34:29;10.00;;;6.10;;
12719;SDS011;6424;48.520;11.228;2023-07-08T01:37:11;8.17;;;6.43;;
12719;SDS011;6424;48.520;11.228;2023-07-08T01:39:52;9.03;;;6.57;;
12719;SDS011;6424;48.520;11.228;2023-07-08T01:42:33;8.43;;;6.77;;
12719;SDS011;6424;48.520;11.228;2023-07-08T01:45:15;8.87;;;6.57;;
12719;SDS011;6424;48.520;11.228;2023-07-08T01:47:59;9.13;;;6.13;;
12719;SDS011;6424;48.520;11.228;2023-07-08T01:51:04;7.90;;;6.50;;
12719;SDS011;6424;48.520;11.228;2023-07-08T01:53:45;8.63;;;6.60;;
12719;SDS011;6424;48.520;11.228;2023-07-08T01:56:25;9.90;;;6.60;;
12719;SDS011;6424;48.520;11.228;2023-07-08T01:58:51;8.70;;;6.63;;
12719;SDS011;6424;48.520;11.228;2023-07-08T02:01:32;7.97;;;7.10;;
12719;SDS011;6424;48.520;11.228;2023-07-08T02:04:13;7.93;;;7.07;;
12719;SDS011;6424;48.520;11.228;2023-07-08T02:06:54;7.40;;;6.20;;
12719;SDS011;6424;48.520;11.228;2023-07-08T02:09:37;10.13;;;6.57;;
12719;SDS011;6424;48.520;11.228;2023-07-08T02:12:18;8.67;;;6.90;;
12719;SDS011;6424;48.520;11.228;2023-07-08T02:15:02;9.73;;;6.77;;
12719;SDS011;6424;48.520;11.228;2023-07-08T02:17:43;9.37;;;6.73;;
12719;SDS011;6424;48.520;11.228;2023-07-08T02:20:24;7.50;;;6.70;;
12719;SDS011;6424;48.520;11.228;2023-07-08T02:23:05;9.03;;;6.50;;
12719;SDS011;6424;48.520;11.228;2023-07-08T02:25:52;7.93;;;6.73;;
12719;SDS011;6424;48.520;11.228;2023-07-08T02:28:34;8.27;;;6.47;;
12719;SDS011;6424;48.520;11.228;2023-07-08T02:31:15;11.93;;;7.77;;
12719;SDS011;6424;48.520;11.228;2023-07-08T02:33:55;10.10;;;6.67;;
12719;SDS011;6424;48.520;11.228;2023-07-08T02:36:36;9.37;;;7.20;;
12719;SDS011;6424;48.520;11.228;2023-07-08T02:39:18;8.27;;;6.83;;
12719;SDS011;6424;48.520;11.228;2023-07-08T02:41:59;10.00;;;7.20;;
12719;SDS011;6424;48.520;11.228;2023-07-08T02:44:41;9.27;;;7.17;;
12719;SDS011;6424;48.520;11.228;2023-07-08T02:47:21;11.30;;;7.17;;
12719;SDS011;6424;48.520;11.228;2023-07-08T02:50:02;8.67;;;7.10;;
12719;SDS011;6424;48.520;11.228;2023-07-08T02:52:44;9.40;;;6.93;;
12719;SDS011;6424;48.520;11.228;2023-07-08T02:55:25;7.33;;;6.27;;
12719;SDS011;6424;48.520;11.228;2023-07-08T02:57:51;10.30;;;7.00;;
12719;SDS011;6424;48.520;11.228;2023-07-08T03:00:31;8.97;;;7.10;;
12719;SDS011;6424;48.520;11.228;2023-07-08T03:03:13;8.33;;;6.87;;
12719;SDS011;6424;48.520;11.228;2023-07-08T03:05:56;10.17;;;7.03;;
12719;SDS011;6424;48.520;11.228;2023-07-08T03:08:42;8.73;;;7.30;;
12719;SDS011;6424;48.520;11.228;2023-07-08T03:11:23;8.30;;;6.60;;
12719;SDS011;6424;48.520;11.228;2023-07-08T03:14:04;12.70;;;7.20;;
12719;SDS011;6424;48.520;11.228;2023-07-08T03:16:46;8.50;;;6.80;;
12719;SDS011;6424;48.520;11.228;2023-07-08T03:19:26;8.57;;;7.13;;
12719;SDS011;6424;48.520;11.228;2023-07-08T03:22:07;7.33;;;6.23;;
12719;SDS011;6424;48.520;11.228;2023-07-08T03:24:33;8.13;;;7.10;;
12719;SDS011;6424;48.520;11.228;2023-07-08T03:27:14;8.47;;;7.40;;
12719;SDS011;6424;48.520;11.228;2023-07-08T03:29:55;7.87;;;6.70;;
12719;SDS011;6424;48.520;11.228;2023-07-08T03:32:21;8.47;;;6.53;;
12719;SDS011;6424;48.520;11.228;2023-07-08T03:35:02;9.33;;;7.60;;
12719;SDS011;6424;48.520;11.228;2023-07-08T03:37:28;10.70;;;7.40;;
12719;SDS011;6424;48.520;11.228;2023-07-08T03:39:53;8.30;;;7.30;;
12719;SDS011;6424;48.520;11.228;2023-07-08T03:42:19;9.73;;;7.27;;
12719;SDS011;6424;48.520;11.228;2023-07-08T03:45:00;8.53;;;6.83;;
12719;SDS011;6424;48.520;11.228;2023-07-08T03:47:41;9.80;;;7.87;;
12719;SDS011;6424;48.520;11.228;2023-07-08T03:50:23;9.03;;;7.67;;
12719;SDS011;6424;48.520;11.228;2023-07-08T03:53:05;10.13;;;6.90;;
12719;SDS011;6424;48.520;11.228;2023-07-08T03:55:46;9.03;;;7.07;;
12719;SDS011;6424;48.520;11.228;2023-07-08T03:58:11;8.93;;;7.30;;
12719;SDS011;6424;48.520;11.228;2023-07-08T04:00:52;10.00;;;6.97;;
12719;SDS011;6424;48.520;11.228;2023-07-08T04:03:33;9.00;;;7.07;;
12719;SDS011;6424;48.520;11.228;2023-07-08T04:06:14;7.00;;;6.17;;
12719;SDS011;6424;48.520;11.228;2023-07-08T04:08:55;7.40;;;6.40;;
12719;SDS011;6424;48.520;11.228;2023-07-08T04:11:35;8.23;;;6.57;;
12719;SDS011;6424;48.520;11.228;2023-07-08T04:14:16;7.90;;;6.80;;
12719;SDS011;6424;48.520;11.228;2023-07-08T04:16:57;10.23;;;7.00;;
12719;SDS011;6424;48.520;11.228;2023-07-08T04:19:24;10.00;;;6.27;;
12719;SDS011;6424;48.520;11.228;2023-07-08T04:22:07;11.67;;;7.60;;
12719;SDS011;6424;48.520;11.228;2023-07-08T04:24:48;10.47;;;7.13;;
12719;SDS011;6424;48.520;11.228;2023-07-08T04:27:15;6.80;;;6.10;;
12719;SDS011;6424;48.520;11.228;2023-07-08T04:29:57;8.57;;;6.93;;
12719;SDS011;6424;48.520;11.228;2023-07-08T04:32:38;10.10;;;7.17;;
12719;SDS011;6424;48.520;11.228;2023-07-08T04:35:18;8.90;;;7.17;;
12719;SDS011;6424;48.520;11.228;2023-07-08T04:38:02;10.47;;;7.47;;
12719;SDS011;6424;48.520;11.228;2023-07-08T04:40:49;9.47;;;7.97;;
12719;SDS011;6424;48.520;11.228;2023-07-08T04:43:31;9.63;;;7.90;;
12719;SDS011;6424;48.520;11.228;2023-07-08T04:46:19;9.70;;;7.23;;
12719;SDS011;6424;48.520;11.228;2023-07-08T04:49:23;9.37;;;7.73;;
12719;SDS011;6424;48.520;11.228;2023-07-08T04:52:05;8.63;;;7.17;;
12719;SDS011;6424;48.520;11.228;2023-07-08T04:54:45;9.97;;;8.93;;
12719;SDS011;6424;48.520;11.228;2023-07-08T04:57:26;9.30;;;8.20;;
12719;SDS011;6424;48.520;11.228;2023-07-08T05:00:07;8.73;;;7.57;;
12719;SDS011;6424;48.520;11.228;2023-07-08T05:02:38;9.17;;;7.53;;
12719;SDS011;6424;48.520;11.228;2023-07-08T05:05:18;9.17;;;8.27;;
12719;SDS011;6424;48.520;11.228;2023-07-08T05:07:59;7.93;;;7.13;;
12719;SDS011;6424;48.520;11.228;2023-07-08T05:10:41;9.60;;;7.57;;
12719;SDS011;6424;48.520;11.228;2023-07-08T05:13:22;9.57;;;7.50;;
12719;SDS011;6424;48.520;11.228;2023-07-08T05:16:03;9.13;;;6.97;;
12719;SDS011;6424;48.520;11.228;2023-07-08T05:18:44;8.57;;;6.10;;
12719;SDS011;6424;48.520;11.228;2023-07-08T05:21:25;9.07;;;7.33;;
12719;SDS011;6424;48.520;11.228;2023-07-08T05:24:07;10.17;;;7.33;;
12719;SDS011;6424;48.520;11.228;2023-07-08T05:26:33;8.03;;;7.23;;
12719;SDS011;6424;48.520;11.228;2023-07-08T05:29:14;8.27;;;7.30;;
12719;SDS011;6424;48.520;11.228;2023-07-08T05:31:55;14.17;;;10.97;;
12719;SDS011;6424;48.520;11.228;2023-07-08T05:34:35;10.03;;;8.67;;
12719;SDS011;6424;48.520;11.228;2023-07-08T05:37:16;7.77;;;6.97;;
12719;SDS011;6424;48.520;11.228;2023-07-08T05:40:01;9.83;;;7.17;;
12719;SDS011;6424;48.520;11.228;2023-07-08T05:42:44;8.77;;;7.43;;
12719;SDS011;6424;48.520;11.228;2023-07-08T05:45:25;8.70;;;7.27;;
12719;SDS011;6424;48.520;11.228;2023-07-08T05:48:06;8.53;;;6.80;;
12719;SDS011;6424;48.520;11.228;2023-07-08T05:50:46;7.47;;;6.60;;
12719;SDS011;6424;48.520;11.228;2023-07-08T05:53:27;10.27;;;6.63;;
12719;SDS011;6424;48.520;11.228;2023-07-08T05:56:08;7.47;;;6.67;;
12719;SDS011;6424;48.520;11.228;2023-07-08T05:58:49;8.03;;;7.20;;
12719;SDS011;6424;48.520;11.228;2023-07-08T06:01:30;7.70;;;6.67;;
12719;SDS011;6424;48.520;11.228;2023-07-08T06:04:11;10.77;;;6.93;;
12719;SDS011;6424;48.520;11.228;2023-07-08T06:06:52;9.33;;;7.10;;
12719;SDS011;6424;48.520;11.228;2023-07-08T06:09:32;8.50;;;6.70;;
12719;SDS011;6424;48.520;11.228;2023-07-08T06:12:13;8.03;;;6.40;;
12719;SDS011;6424;48.520;11.228;2023-07-08T06:14:54;6.70;;;5.93;;
12719;SDS011;6424;48.520;11.228;2023-07-08T06:17:20;7.03;;;6.33;;
12719;SDS011;6424;48.520;11.228;2023-07-08T06:20:01;7.40;;;5.67;;
12719;SDS011;6424;48.520;11.228;2023-07-08T06:22:42;8.57;;;6.37;;
12719;SDS011;6424;48.520;11.228;2023-07-08T06:25:22;8.03;;;6.23;;
12719;SDS011;6424;48.520;11.228;2023-07-08T06:28:03;6.90;;;5.70;;
12719;SDS011;6424;48.520;11.228;2023-07-08T06:30:44;6.07;;;5.40;;
12719;SDS011;6424;48.520;11.228;2023-07-08T06:33:25;7.03;;;5.90;;
12719;SDS011;6424;48.520;11.228;2023-07-08T06:36:05;8.30;;;5.97;;
12719;SDS011;6424;48.520;11.228;2023-07-08T06:38:47;6.17;;;5.57;;
12719;SDS011;6424;48.520;11.228;2023-07-08T06:41:13;8.73;;;5.83;;
12719;SDS011;6424;48.520;11.228;2023-07-08T06:43:54;6.23;;;5.63;;
12719;SDS011;6424;48.520;11.228;2023-07-08T06:46:35;6.57;;;5.40;;
12719;SDS011;6424;48.520;11.228;2023-07-08T06:49:01;7.53;;;5.87;;
12719;SDS011;6424;48.520;11.228;2023-07-08T06:51:27;7.00;;;5.40;;
12719;SDS011;6424;48.520;11.228;2023-07-08T06:54:08;6.27;;;5.33;;
12719;SDS011;6424;48.520;11.228;2023-07-08T06:56:51;7.07;;;5.33;;
12719;SDS011;6424;48.520;11.228;2023-07-08T06:59:32;5.50;;;5.00;;
12719;SDS011;6424;48.520;11.228;2023-07-08T07:02:14;6.20;;;5.60;;
12719;SDS011;6424;48.520;11.228;2023-07-08T07:04:54;7.27;;;5.63;;
12719;SDS011;6424;48.520;11.228;2023-07-08T07:07:35;6.07;;;5.17;;
12719;SDS011;6424;48.520;11.228;2023-07-08T07:10:16;6.80;;;5.47;;
12719;SDS011;6424;48.520;11.228;2023-07-08T07:12:57;5.60;;;5.00;;
12719;SDS011;6424;48.520;11.228;2023-07-08T07:15:38;6.03;;;5.43;;
12719;SDS011;6424;48.520;11.228;2023-07-08T07:18:18;7.60;;;5.50;;
12719;SDS011;6424;48.520;11.228;2023-07-08T07:20:59;7.83;;;5.70;;
12719;SDS011;6424;48.520;11.228;2023-07-08T07:23:40;8.07;;;5.67;;
12719;SDS011;6424;48.520;11.228;2023-07-08T07:26:21;7.03;;;5.20;;
12719;SDS011;6424;48.520;11.228;2023-07-08T07:29:02;6.20;;;5.30;;
12719;SDS011;6424;48.520;11.228;2023-07-08T07:31:43;6.50;;;5.43;;
12719;SDS011;6424;48.520;11.228;2023-07-08T07:34:24;6.03;;;5.43;;
12719;SDS011;6424;48.520;11.228;2023-07-08T07:37:05;6.17;;;5.57;;
12719;SDS011;6424;48.520;11.228;2023-07-08T07:39:50;7.03;;;5.50;;
12719;SDS011;6424;48.520;11.228;2023-07-08T07:42:31;5.93;;;5.27;;
12719;SDS011;6424;48.520;11.228;2023-07-08T07:45:12;7.23;;;5.33;;
12719;SDS011;6424;48.520;11.228;2023-07-08T07:47:53;5.73;;;5.20;;
12719;SDS011;6424;48.520;11.228;2023-07-08T07:50:34;7.70;;;5.63;;
12719;SDS011;6424;48.520;11.228;2023-07-08T07:53:15;5.90;;;5.30;;
12719;SDS011;6424;48.520;11.228;2023-07-08T07:55:59;9.50;;;5.50;;
12719;SDS011;6424;48.520;11.228;2023-07-08T07:58:41;6.60;;;5.40;;
12719;SDS011;6424;48.520;11.228;2023-07-08T08:01:22;7.93;;;6.10;;
12719;SDS011;6424;48.520;11.228;2023-07-08T08:04:03;6.43;;;5.00;;
12719;SDS011;6424;48.520;11.228;2023-07-08T08:06:44;7.40;;;5.47;;
12719;SDS011;6424;48.520;11.228;2023-07-08T08:09:09;8.53;;;5.20;;
12719;SDS011;6424;48.520;11.228;2023-07-08T08:11:50;10.60;;;5.73;;
12719;SDS011;6424;48.520;11.228;2023-07-08T08:14:17;6.73;;;5.60;;
12719;SDS011;6424;48.520;11.228;2023-07-08T08:16:58;9.87;;;5.53;;
12719;SDS011;6424;48.520;11.228;2023-07-08T08:19:39;7.40;;;6.37;;
12719;SDS011;6424;48.520;11.228;2023-07-08T08:22:19;7.27;;;6.20;;
12719;SDS011;6424;48.520;11.228;2023-07-08T08:25:01;8.77;;;6.27;;
12719;SDS011;6424;48.520;11.228;2023-07-08T08:27:42;10.60;;;6.53;;
12719;SDS011;6424;48.520;11.228;2023-07-08T08:30:24;7.17;;;6.40;;
12719;SDS011;6424;48.520;11.228;2023-07-08T08:33:04;6.47;;;5.70;;
12719;SDS011;6424;48.520;11.228;2023-07-08T08:35:45;7.57;;;6.40;;
12719;SDS011;6424;48.520;11.228;2023-07-08T08:38:26;7.80;;;6.37;;
12719;SDS011;6424;48.520;11.228;2023-07-08T08:41:14;6.83;;;6.10;;
12719;SDS011;6424;48.520;11.228;2023-07-08T08:43:57;10.07;;;6.73;;
12719;SDS011;6424;48.520;11.228;2023-07-08T08:46:52;8.40;;;7.47;;
12719;SDS011;6424;48.520;11.228;2023-07-08T08:49:54;9.57;;;6.67;;
12719;SDS011;6424;48.520;11.228;2023-07-08T08:52:41;9.33;;;6.30;;
12719;SDS011;6424;48.520;11.228;2023-07-08T08:55:23;8.03;;;6.93;;
12719;SDS011;6424;48.520;11.228;2023-07-08T09:03:38;7.23;;;6.53;;
12719;SDS011;6424;48.520;11.228;2023-07-08T09:06:28;9.13;;;6.83;;
12719;SDS011;6424;48.520;11.228;2023-07-08T09:09:18;7.90;;;6.60;;
12719;SDS011;6424;48.520;11.228;2023-07-08T09:12:22;9.03;;;6.53;;
12719;SDS011;6424;48.520;11.228;2023-07-08T09:15:13;11.53;;;7.23;;
12719;SDS011;6424;48.520;11.228;2023-07-08T09:17:57;12.93;;;6.97;;
12719;SDS011;6424;48.520;11.228;2023-07-08T09:20:50;7.83;;;6.93;;
12719;SDS011;6424;48.520;11.228;2023-07-08T09:23:33;20.90;;;8.80;;
12719;SDS011;6424;48.520;11.228;2023-07-08T09:26:19;14.00;;;8.10;;
12719;SDS011;6424;48.520;11.228;2023-07-08T09:29:07;7.20;;;6.40;;
12719;SDS011;6424;48.520;11.228;2023-07-08T09:31:48;10.17;;;7.27;;
12719;SDS011;6424;48.520;11.228;2023-07-08T09:34:43;8.53;;;6.80;;
12719;SDS011;6424;48.520;11.228;2023-07-08T09:37:32;10.00;;;7.93;;
12719;SDS011;6424;48.520;11.228;2023-07-08T09:40:19;10.40;;;6.80;;
12719;SDS011;6424;48.520;11.228;2023-07-08T09:45:59;7.23;;;6.53;;
12719;SDS011;6424;48.520;11.228;2023-07-08T09:48:40;8.10;;;6.30;;
12719;SDS011;6424;48.520;11.228;2023-07-08T09:51:20;10.47;;;7.53;;
12719;SDS011;6424;48.520;11.228;2023-07-08T09:53:46;8.30;;;6.97;;
12719;SDS011;6424;48.520;11.228;2023-07-08T09:56:27;7.37;;;6.63;;
12719;SDS011;6424;48.520;11.228;2023-07-08T09:59:11;8.20;;;6.20;;
12719;SDS011;6424;48.520;11.228;2023-07-08T10:01:53;8.50;;;6.53;;
12719;SDS011;6424;48.520;11.228;2023-07-08T10:04:35;8.53;;;7.07;;
12719;SDS011;6424;48.520;11.228;2023-07-08T10:07:16;8.30;;;7.50;;
12719;SDS011;6424;48.520;11.228;2023-07-08T10:09:58;9.20;;;7.20;;
12719;SDS011;6424;48.520;11.228;2023-07-08T10:12:43;10.30;;;7.40;;
12719;SDS011;6424;48.520;11.228;2023-07-08T10:18:20;8.70;;;7.80;;
12719;SDS011;6424;48.520;11.228;2023-07-08T10:20:59;10.83;;;7.70;;
12719;SDS011;6424;48.520;11.228;2023-07-08T10:24:18;10.97;;;7.10;;
12719;SDS011;6424;48.520;11.228;2023-07-08T10:50:43;9.73;;;7.47;;
12719;SDS011;6424;48.520;11.228;2023-07-08T10:56:28;8.27;;;7.37;;
12719;SDS011;6424;48.520;11.228;2023-07-08T11:05:59;8.13;;;7.33;;
12719;SDS011;6424;48.520;11.228;2023-07-08T11:08:50;8.53;;;7.00;;
12719;SDS011;6424;48.520;11.228;2023-07-08T11:14:13;8.63;;;7.57;;
12719;SDS011;6424;48.520;11.228;2023-07-08T11:17:04;9.07;;;7.10;;
12719;SDS011;6424;48.520;11.228;2023-07-08T11:20:00;7.50;;;6.63;;
12719;SDS011;6424;48.520;11.228;2023-07-08T11:22:55;8.17;;;6.93;;
12719;SDS011;6424;48.520;11.228;2023-07-08T11:25:26;8.93;;;7.63;;
12719;SDS011;6424;48.520;11.228;2023-07-08T11:28:08;8.63;;;7.03;;
12719;SDS011;6424;48.520;11.228;2023-07-08T11:31:02;8.95;;;7.15;;
12719;SDS011;6424;48.520;11.228;2023-07-08T11:33:42;7.25;;;6.50;;
12719;SDS011;6424;48.520;11.228;2023-07-08T11:36:25;9.38;;;7.40;;
12719;SDS011;6424;48.520;11.228;2023-07-08T11:39:25;8.45;;;7.47;;
12719;SDS011;6424;48.520;11.228;2023-07-08T11:44:58;9.55;;;6.53;;
12719;SDS011;6424;48.520;11.228;2023-07-08T11:47:38;8.52;;;7.18;;
12719;SDS011;6424;48.520;11.228;2023-07-08T11:50:28;8.00;;;6.95;;
12719;SDS011;6424;48.520;11.228;2023-07-08T11:53:11;7.93;;;7.18;;
12719;SDS011;6424;48.520;11.228;2023-07-08T11:56:18;9.48;;;7.13;;
12719;SDS011;6424;48.520;11.228;2023-07-08T11:59:17;7.97;;;6.28;;
12719;SDS011;6424;48.520;11.228;2023-07-08T12:02:04;8.13;;;7.32;;
12719;SDS011;6424;48.520;11.228;2023-07-08T12:07:41;7.07;;;6.03;;
12719;SDS011;6424;48.520;11.228;2023-07-08T12:11:07;8.68;;;6.70;;
12719;SDS011;6424;48.520;11.228;2023-07-08T12:13:32;7.43;;;6.28;;
12719;SDS011;6424;48.520;11.228;2023-07-08T12:16:13;7.45;;;6.63;;
12719;SDS011;6424;48.520;11.228;2023-07-08T12:18:53;7.38;;;5.60;;
12719;SDS011;6424;48.520;11.228;2023-07-08T12:21:36;7.68;;;6.55;;
12719;SDS011;6424;48.520;11.228;2023-07-08T12:24:17;6.10;;;5.50;;
12719;SDS011;6424;48.520;11.228;2023-07-08T12:27:05;8.68;;;5.85;;
12719;SDS011;6424;48.520;11.228;2023-07-08T12:29:46;7.97;;;6.15;;
12719;SDS011;6424;48.520;11.228;2023-07-08T12:32:27;6.63;;;5.95;;
12719;SDS011;6424;48.520;11.228;2023-07-08T12:35:21;7.63;;;5.95;;
12719;SDS011;6424;48.520;11.228;2023-07-08T12:37:50;6.05;;;5.10;;
12719;SDS011;6424;48.520;11.228;2023-07-08T12:40:33;7.60;;;5.35;;
12719;SDS011;6424;48.520;11.228;2023-07-08T12:43:18;6.13;;;5.30;;
12719;SDS011;6424;48.520;11.228;2023-07-08T12:45:59;7.95;;;5.90;;
12719;SDS011;6424;48.520;11.228;2023-07-08T12:48:40;7.65;;;5.22;;
12719;SDS011;6424;48.520;11.228;2023-07-08T12:51:25;7.30;;;5.28;;
12719;SDS011;6424;48.520;11.228;2023-07-08T12:54:08;6.63;;;5.93;;
12719;SDS011;6424;48.520;11.228;2023-07-08T12:56:35;6.53;;;5.63;;
12719;SDS011;6424;48.520;11.228;2023-07-08T12:59:18;5.80;;;5.25;;
12719;SDS011;6424;48.520;11.228;2023-07-08T13:02:00;7.18;;;5.45;;
12719;SDS011;6424;48.520;11.228;2023-07-08T13:04:41;6.45;;;5.57;;
12719;SDS011;6424;48.520;11.228;2023-07-08T13:10:20;9.45;;;5.75;;
12719;SDS011;6424;48.520;11.228;2023-07-08T13:13:04;7.88;;;5.55;;
12719;SDS011;6424;48.520;11.228;2023-07-08T13:15:48;5.60;;;5.10;;
12719;SDS011;6424;48.520;11.228;2023-07-08T13:18:33;6.97;;;5.47;;
12719;SDS011;6424;48.520;11.228;2023-07-08T13:21:15;7.65;;;5.88;;
12719;SDS011;6424;48.520;11.228;2023-07-08T13:23:57;7.40;;;5.88;;
12719;SDS011;6424;48.520;11.228;2023-07-08T13:26:38;6.15;;;5.38;;
12719;SDS011;6424;48.520;11.228;2023-07-08T13:29:19;8.90;;;6.07;;
12719;SDS011;6424;48.520;11.228;2023-07-08T13:32:04;8.65;;;5.85;;
12719;SDS011;6424;48.520;11.228;2023-07-08T13:34:48;7.47;;;6.00;;
12719;SDS011;6424;48.520;11.228;2023-07-08T13:37:30;6.45;;;5.78;;
12719;SDS011;6424;48.520;11.228;2023-07-08T13:40:11;6.03;;;5.40;;
12719;SDS011;6424;48.520;11.228;2023-07-08T13:42:52;7.28;;;6.00;;
12719;SDS011;6424;48.520;11.228;2023-07-08T13:45:33;6.13;;;5.53;;
12719;SDS011;6424;48.520;11.228;2023-07-08T13:48:24;7.20;;;6.07;;
12719;SDS011;6424;48.520;11.228;2023-07-08T13:51:16;7.22;;;5.97;;
12719;SDS011;6424;48.520;11.228;2023-07-08T13:54:08;8.48;;;6.05;;
12719;SDS011;6424;48.520;11.228;2023-07-08T13:56:55;5.97;;;5.38;;
12719;SDS011;6424;48.520;11.228;2023-07-08T13:59:35;6.55;;;5.78;;
12719;SDS011;6424;48.520;11.228;2023-07-08T14:02:19;7.13;;;6.38;;
12719;SDS011;6424;48.520;11.228;2023-07-08T14:05:05;6.50;;;5.78;;
12719;SDS011;6424;48.520;11.228;2023-07-08T14:07:51;8.27;;;6.05;;
12719;SDS011;6424;48.520;11.228;2023-07-08T14:10:32;8.85;;;6.20;;
12719;SDS011;6424;48.520;11.228;2023-07-08T14:13:13;7.30;;;6.15;;
12719;SDS011;6424;48.520;11.228;2023-07-08T14:15:55;7.85;;;6.00;;
12719;SDS011;6424;48.520;11.228;2023-07-08T14:18:36;7.32;;;6.38;;
12719;SDS011;6424;48.520;11.228;2023-07-08T14:21:17;7.85;;;6.22;;
12719;SDS011;6424;48.520;11.228;2023-07-08T14:23:58;8.35;;;5.75;;
12719;SDS011;6424;48.520;11.228;2023-07-08T14:26:45;6.82;;;5.60;;
12719;SDS011;6424;48.520;11.228;2023-07-08T14:29:27;6.25;;;5.65;;
12719;SDS011;6424;48.520;11.228;2023-07-08T14:31:53;6.53;;;5.88;;
12719;SDS011;6424;48.520;11.228;2023-07-08T14:34:33;6.20;;;5.38;;
12719;SDS011;6424;48.520;11.228;2023-07-08T14:37:15;6.95;;;5.68;;
12719;SDS011;6424;48.520;11.228;2023-07-08T14:39:56;8.23;;;5.53;;
12719;SDS011;6424;48.520;11.228;2023-07-08T14:42:37;7.47;;;5.75;;
12719;SDS011;6424;48.520;11.228;2023-07-08T14:45:18;6.57;;;5.60;;
12719;SDS011;6424;48.520;11.228;2023-07-08T14:47:59;6.78;;;5.93;;
12719;SDS011;6424;48.520;11.228;2023-07-08T14:50:39;5.95;;;5.13;;
12719;SDS011;6424;48.520;11.228;2023-07-08T14:53:20;7.45;;;6.68;;
12719;SDS011;6424;48.520;11.228;2023-07-08T14:56:03;8.85;;;6.03;;
12719;SDS011;6424;48.520;11.228;2023-07-08T14:58:51;6.45;;;5.30;;
12719;SDS011;6424;48.520;11.228;2023-07-08T15:01:32;6.45;;;5.80;;
12719;SDS011;6424;48.520;11.228;2023-07-08T15:04:15;6.97;;;5.82;;
12719;SDS011;6424;48.520;11.228;2023-07-08T15:06:58;6.68;;;5.97;;
12719;SDS011;6424;48.520;11.228;2023-07-08T15:09:40;9.52;;;5.70;;
12719;SDS011;6424;48.520;11.228;2023-07-08T15:12:20;6.47;;;5.13;;
12719;SDS011;6424;48.520;11.228;2023-07-08T15:15:01;7.95;;;5.53;;
12719;SDS011;6424;48.520;11.228;2023-07-08T15:17:42;7.85;;;5.78;;
12719;SDS011;6424;48.520;11.228;2023-07-08T15:20:24;6.15;;;5.22;;
12719;SDS011;6424;48.520;11.228;2023-07-08T15:23:05;8.85;;;5.40;;
12719;SDS011;6424;48.520;11.228;2023-07-08T15:25:46;5.93;;;5.22;;
12719;SDS011;6424;48.520;11.228;2023-07-08T15:28:42;7.53;;;5.43;;
12719;SDS011;6424;48.520;11.228;2023-07-08T15:31:31;7.65;;;5.38;;
12719;SDS011;6424;48.520;11.228;2023-07-08T15:34:14;7.18;;;5.00;;
12719;SDS011;6424;48.520;11.228;2023-07-08T15:36:56;7.13;;;5.20;;
12719;SDS011;6424;48.520;11.228;2023-07-08T15:39:37;5.90;;;5.20;;
12719;SDS011;6424;48.520;11.228;2023-07-08T15:42:22;7.18;;;5.35;;
12719;SDS011;6424;48.520;11.228;2023-07-08T15:45:13;5.90;;;5.28;;
12719;SDS011;6424;48.520;11.228;2023-07-08T15:47:45;5.90;;;5.05;;
12719;SDS011;6424;48.520;11.228;2023-07-08T15:50:27;5.57;;;5.00;;
12719;SDS011;6424;48.520;11.228;2023-07-08T15:53:08;7.13;;;5.30;;
12719;SDS011;6424;48.520;11.228;2023-07-08T15:55:34;9.02;;;5.10;;
12719;SDS011;6424;48.520;11.228;2023-07-08T15:58:23;6.57;;;5.13;;
12719;SDS011;6424;48.520;11.228;2023-07-08T16:01:07;8.27;;;5.40;;
12719;SDS011;6424;48.520;11.228;2023-07-08T16:03:55;6.90;;;5.22;;
12719;SDS011;6424;48.520;11.228;2023-07-08T16:06:35;7.45;;;5.00;;
12719;SDS011;6424;48.520;11.228;2023-07-08T16:09:16;8.00;;;5.00;;
12719;SDS011;6424;48.520;11.228;2023-07-08T16:11:57;7.50;;;5.50;;
12719;SDS011;6424;48.520;11.228;2023-07-08T16:14:38;6.47;;;4.68;;
12719;SDS011;6424;48.520;11.228;2023-07-08T16:17:19;8.70;;;5.53;;
12719;SDS011;6424;48.520;11.228;2023-07-08T16:19:59;6.28;;;4.82;;
12719;SDS011;6424;48.520;11.228;2023-07-08T16:22:40;7.07;;;5.47;;
12719;SDS011;6424;48.520;11.228;2023-07-08T16:25:28;6.88;;;5.32;;
12719;SDS011;6424;48.520;11.228;2023-07-08T16:28:19;7.00;;;5.50;;
12719;SDS011;6424;48.520;11.228;2023-07-08T16:31:06;7.70;;;5.30;;
12719;SDS011;6424;48.520;11.228;2023-07-08T16:33:52;5.95;;;5.13;;
12719;SDS011;6424;48.520;11.228;2023-07-08T16:36:35;7.78;;;5.40;;
12719;SDS011;6424;48.520;11.228;2023-07-08T16:39:15;6.28;;;5.65;;
12719;SDS011;6424;48.520;11.228;2023-07-08T16:41:56;10.10;;;5.80;;
12719;SDS011;6424;48.520;11.228;2023-07-08T16:44:37;9.23;;;5.35;;
12719;SDS011;6424;48.520;11.228;2023-07-08T16:47:17;7.30;;;5.78;;
12719;SDS011;6424;48.520;11.228;2023-07-08T16:49:58;6.97;;;5.43;;
12719;SDS011;6424;48.520;11.228;2023-07-08T16:52:39;7.15;;;5.45;;
12719;SDS011;6424;48.520;11.228;2023-07-08T16:55:20;7.13;;;5.10;;
12719;SDS011;6424;48.520;11.228;2023-07-08T16:58:02;5.68;;;4.63;;
12719;SDS011;6424;48.520;11.228;2023-07-08T17:00:43;7.63;;;5.05;;
12719;SDS011;6424;48.520;11.228;2023-07-08T17:03:25;6.97;;;5.32;;
12719;SDS011;6424;48.520;11.228;2023-07-08T17:06:06;7.68;;;4.85;;
12719;SDS011;6424;48.520;11.228;2023-07-08T17:08:47;6.18;;;5.05;;
12719;SDS011;6424;48.520;11.228;2023-07-08T17:11:28;7.05;;;5.50;;
12719;SDS011;6424;48.520;11.228;2023-07-08T17:14:09;6.30;;;4.90;;
12719;SDS011;6424;48.520;11.228;2023-07-08T17:16:51;7.30;;;5.60;;